sensor_id;sensor_type;location;lat;lon;timestamp;P1;durP1;ratioP1;P2;durP2;ratioP2
20639;SDS011;10479;53.524;9.846;2023-04-15T00:01:11;7.13;;;4.07;;
20639;SDS011;10479;53.524;9.846;2023-04-15T00:03:37;7.97;;;4.10;;
20639;SDS011;10479;53.524;9.846;2023-04-15T00:06:03;9.18;;;4.93;;
20639;SDS011;10479;53.524;9.846;2023-04-15T00:08:28;9.73;;;4.65;;
20639;SDS011;10479;53.524;9.846;2023-04-15T00:10:55;7.90;;;4.20;;
20639;SDS011;10479;53.524;9.846;2023-04-15T00:13:20;8.55;;;4.70;;
20639;SDS011;10479;53.524;9.846;2023-04-15T00:15:46;9.68;;;4.78;;
20639;SDS011;10479;53.524;9.846;2023-04-15T00:18:12;8.65;;;4.57;;
20639;SDS011;10479;53.524;9.846;2023-04-15T00:20:37;11.65;;;5.63;;
20639;SDS011;10479;53.524;9.846;2023-04-15T00:23:03;8.45;;;4.40;;
20639;SDS011;10479;53.524;9.846;2023-04-15T00:25:29;7.90;;;4.30;;
20639;SDS011;10479;53.524;9.846;2023-04-15T00:27:55;11.25;;;5.10;;
20639;SDS011;10479;53.524;9.846;2023-04-15T00:30:20;11.65;;;5.43;;
20639;SDS011;10479;53.524;9.846;2023-04-15T00:32:46;11.68;;;6.30;;
20639;SDS011;10479;53.524;9.846;2023-04-15T00:35:12;11.75;;;6.07;;
20639;SDS011;10479;53.524;9.846;2023-04-15T00:37:38;10.98;;;5.90;;
20639;SDS011;10479;53.524;9.846;2023-04-15T00:40:04;9.98;;;5.53;;
20639;SDS011;10479;53.524;9.846;2023-04-15T00:42:30;13.15;;;6.45;;
20639;SDS011;10479;53.524;9.846;2023-04-15T00:44:55;11.20;;;5.80;;
20639;SDS011;10479;53.524;9.846;2023-04-15T00:47:21;11.48;;;5.88;;
20639;SDS011;10479;53.524;9.846;2023-04-15T00:49:47;13.70;;;5.95;;
20639;SDS011;10479;53.524;9.846;2023-04-15T00:52:12;12.20;;;6.30;;
20639;SDS011;10479;53.524;9.846;2023-04-15T00:54:38;12.20;;;6.40;;
20639;SDS011;10479;53.524;9.846;2023-04-15T00:57:04;11.57;;;5.93;;
20639;SDS011;10479;53.524;9.846;2023-04-15T00:59:31;11.18;;;5.90;;
20639;SDS011;10479;53.524;9.846;2023-04-15T01:01:57;11.75;;;6.28;;
20639;SDS011;10479;53.524;9.846;2023-04-15T01:04:23;12.23;;;6.30;;
20639;SDS011;10479;53.524;9.846;2023-04-15T01:06:49;11.90;;;5.85;;
20639;SDS011;10479;53.524;9.846;2023-04-15T01:09:15;13.07;;;7.20;;
20639;SDS011;10479;53.524;9.846;2023-04-15T01:11:42;14.77;;;7.13;;
20639;SDS011;10479;53.524;9.846;2023-04-15T01:14:08;15.43;;;7.50;;
20639;SDS011;10479;53.524;9.846;2023-04-15T01:16:35;14.40;;;6.97;;
20639;SDS011;10479;53.524;9.846;2023-04-15T01:19:04;14.20;;;7.18;;
20639;SDS011;10479;53.524;9.846;2023-04-15T01:21:31;16.73;;;8.75;;
20639;SDS011;10479;53.524;9.846;2023-04-15T01:23:57;16.50;;;8.15;;
20639;SDS011;10479;53.524;9.846;2023-04-15T01:26:23;20.38;;;9.88;;
20639;SDS011;10479;53.524;9.846;2023-04-15T01:28:48;23.02;;;9.85;;
20639;SDS011;10479;53.524;9.846;2023-04-15T01:31:14;18.13;;;9.18;;
20639;SDS011;10479;53.524;9.846;2023-04-15T01:33:41;18.55;;;9.07;;
20639;SDS011;10479;53.524;9.846;2023-04-15T01:36:07;22.30;;;11.18;;
20639;SDS011;10479;53.524;9.846;2023-04-15T01:38:34;22.30;;;10.63;;
20639;SDS011;10479;53.524;9.846;2023-04-15T01:41:00;22.90;;;10.95;;
20639;SDS011;10479;53.524;9.846;2023-04-15T01:43:26;27.65;;;12.05;;
20639;SDS011;10479;53.524;9.846;2023-04-15T01:45:52;18.58;;;9.90;;
20639;SDS011;10479;53.524;9.846;2023-04-15T01:48:18;26.52;;;11.77;;
20639;SDS011;10479;53.524;9.846;2023-04-15T01:50:43;21.10;;;10.52;;
20639;SDS011;10479;53.524;9.846;2023-04-15T01:53:09;24.70;;;10.70;;
20639;SDS011;10479;53.524;9.846;2023-04-15T01:55:35;21.38;;;10.85;;
20639;SDS011;10479;53.524;9.846;2023-04-15T01:58:01;20.63;;;10.45;;
20639;SDS011;10479;53.524;9.846;2023-04-15T02:00:26;24.90;;;11.93;;
20639;SDS011;10479;53.524;9.846;2023-04-15T02:02:52;25.23;;;11.90;;
20639;SDS011;10479;53.524;9.846;2023-04-15T02:05:18;22.60;;;10.18;;
20639;SDS011;10479;53.524;9.846;2023-04-15T02:07:44;28.38;;;12.43;;
20639;SDS011;10479;53.524;9.846;2023-04-15T02:10:09;20.42;;;9.77;;
20639;SDS011;10479;53.524;9.846;2023-04-15T02:12:37;23.55;;;10.23;;
20639;SDS011;10479;53.524;9.846;2023-04-15T02:15:02;21.67;;;10.65;;
20639;SDS011;10479;53.524;9.846;2023-04-15T02:17:28;19.65;;;9.07;;
20639;SDS011;10479;53.524;9.846;2023-04-15T02:19:54;19.27;;;9.80;;
20639;SDS011;10479;53.524;9.846;2023-04-15T02:22:21;21.10;;;9.68;;
20639;SDS011;10479;53.524;9.846;2023-04-15T02:24:46;18.70;;;8.48;;
20639;SDS011;10479;53.524;9.846;2023-04-15T02:27:15;22.13;;;10.10;;
20639;SDS011;10479;53.524;9.846;2023-04-15T02:29:42;18.27;;;9.02;;
20639;SDS011;10479;53.524;9.846;2023-04-15T02:32:09;22.90;;;10.27;;
20639;SDS011;10479;53.524;9.846;2023-04-15T02:34:35;17.10;;;9.00;;
20639;SDS011;10479;53.524;9.846;2023-04-15T02:37:03;21.77;;;9.70;;
20639;SDS011;10479;53.524;9.846;2023-04-15T02:39:29;18.00;;;8.98;;
20639;SDS011;10479;53.524;9.846;2023-04-15T02:41:55;23.63;;;10.85;;
20639;SDS011;10479;53.524;9.846;2023-04-15T02:44:23;20.17;;;9.90;;
20639;SDS011;10479;53.524;9.846;2023-04-15T02:46:49;21.83;;;10.35;;
20639;SDS011;10479;53.524;9.846;2023-04-15T02:49:16;24.52;;;10.38;;
20639;SDS011;10479;53.524;9.846;2023-04-15T02:51:42;24.42;;;10.07;;
20639;SDS011;10479;53.524;9.846;2023-04-15T02:54:09;24.17;;;10.20;;
20639;SDS011;10479;53.524;9.846;2023-04-15T02:56:34;19.67;;;9.38;;
20639;SDS011;10479;53.524;9.846;2023-04-15T02:59:00;28.48;;;12.20;;
20639;SDS011;10479;53.524;9.846;2023-04-15T03:01:25;22.55;;;10.50;;
20639;SDS011;10479;53.524;9.846;2023-04-15T03:03:51;23.02;;;10.80;;
20639;SDS011;10479;53.524;9.846;2023-04-15T03:06:16;25.65;;;10.57;;
20639;SDS011;10479;53.524;9.846;2023-04-15T03:08:42;23.50;;;11.02;;
20639;SDS011;10479;53.524;9.846;2023-04-15T03:11:07;20.83;;;10.45;;
20639;SDS011;10479;53.524;9.846;2023-04-15T03:13:33;22.40;;;10.75;;
20639;SDS011;10479;53.524;9.846;2023-04-15T03:15:58;24.60;;;11.13;;
20639;SDS011;10479;53.524;9.846;2023-04-15T03:18:24;24.60;;;11.40;;
20639;SDS011;10479;53.524;9.846;2023-04-15T03:20:49;21.08;;;10.20;;
20639;SDS011;10479;53.524;9.846;2023-04-15T03:23:14;22.25;;;10.52;;
20639;SDS011;10479;53.524;9.846;2023-04-15T03:25:40;23.17;;;10.93;;
20639;SDS011;10479;53.524;9.846;2023-04-15T03:28:05;24.17;;;10.88;;
20639;SDS011;10479;53.524;9.846;2023-04-15T03:30:31;27.25;;;12.38;;
20639;SDS011;10479;53.524;9.846;2023-04-15T03:32:56;24.08;;;11.27;;
20639;SDS011;10479;53.524;9.846;2023-04-15T03:35:22;28.40;;;12.48;;
20639;SDS011;10479;53.524;9.846;2023-04-15T03:37:47;21.50;;;10.82;;
20639;SDS011;10479;53.524;9.846;2023-04-15T03:40:13;30.27;;;13.00;;
20639;SDS011;10479;53.524;9.846;2023-04-15T03:42:38;33.42;;;13.20;;
20639;SDS011;10479;53.524;9.846;2023-04-15T03:45:04;35.35;;;14.65;;
20639;SDS011;10479;53.524;9.846;2023-04-15T03:47:31;40.63;;;14.57;;
20639;SDS011;10479;53.524;9.846;2023-04-15T03:49:57;27.92;;;11.50;;
20639;SDS011;10479;53.524;9.846;2023-04-15T03:52:22;37.92;;;15.13;;
20639;SDS011;10479;53.524;9.846;2023-04-15T03:54:48;43.45;;;16.90;;
20639;SDS011;10479;53.524;9.846;2023-04-15T03:57:14;30.40;;;13.23;;
20639;SDS011;10479;53.524;9.846;2023-04-15T03:59:40;33.25;;;14.00;;
20639;SDS011;10479;53.524;9.846;2023-04-15T04:02:06;43.08;;;16.25;;
20639;SDS011;10479;53.524;9.846;2023-04-15T04:04:32;29.80;;;13.55;;
20639;SDS011;10479;53.524;9.846;2023-04-15T04:06:57;38.53;;;16.13;;
20639;SDS011;10479;53.524;9.846;2023-04-15T04:09:23;34.20;;;14.13;;
20639;SDS011;10479;53.524;9.846;2023-04-15T04:11:48;42.17;;;15.75;;
20639;SDS011;10479;53.524;9.846;2023-04-15T04:14:14;36.08;;;14.75;;
20639;SDS011;10479;53.524;9.846;2023-04-15T04:16:39;43.90;;;17.05;;
20639;SDS011;10479;53.524;9.846;2023-04-15T04:19:05;38.78;;;15.55;;
20639;SDS011;10479;53.524;9.846;2023-04-15T04:21:30;44.88;;;16.90;;
20639;SDS011;10479;53.524;9.846;2023-04-15T04:23:58;44.90;;;17.75;;
20639;SDS011;10479;53.524;9.846;2023-04-15T04:26:23;34.85;;;15.32;;
20639;SDS011;10479;53.524;9.846;2023-04-15T04:28:49;51.75;;;17.95;;
20639;SDS011;10479;53.524;9.846;2023-04-15T04:31:14;44.65;;;16.90;;
20639;SDS011;10479;53.524;9.846;2023-04-15T04:33:41;56.95;;;19.20;;
20639;SDS011;10479;53.524;9.846;2023-04-15T04:36:06;39.67;;;15.90;;
20639;SDS011;10479;53.524;9.846;2023-04-15T04:38:31;36.80;;;16.10;;
20639;SDS011;10479;53.524;9.846;2023-04-15T04:40:57;41.15;;;16.67;;
20639;SDS011;10479;53.524;9.846;2023-04-15T04:43:22;40.20;;;15.60;;
20639;SDS011;10479;53.524;9.846;2023-04-15T04:45:48;44.75;;;16.65;;
20639;SDS011;10479;53.524;9.846;2023-04-15T04:48:13;34.63;;;15.57;;
20639;SDS011;10479;53.524;9.846;2023-04-15T04:50:39;38.17;;;15.00;;
20639;SDS011;10479;53.524;9.846;2023-04-15T04:53:04;31.13;;;15.25;;
20639;SDS011;10479;53.524;9.846;2023-04-15T04:55:30;44.15;;;16.17;;
20639;SDS011;10479;53.524;9.846;2023-04-15T04:57:56;39.22;;;15.32;;
20639;SDS011;10479;53.524;9.846;2023-04-15T05:00:21;42.85;;;16.65;;
20639;SDS011;10479;53.524;9.846;2023-04-15T05:02:47;45.58;;;17.70;;
20639;SDS011;10479;53.524;9.846;2023-04-15T05:05:12;43.53;;;18.40;;
20639;SDS011;10479;53.524;9.846;2023-04-15T05:07:37;43.50;;;17.55;;
20639;SDS011;10479;53.524;9.846;2023-04-15T05:10:04;46.20;;;18.48;;
20639;SDS011;10479;53.524;9.846;2023-04-15T05:12:30;52.40;;;19.33;;
20639;SDS011;10479;53.524;9.846;2023-04-15T05:14:56;48.00;;;18.63;;
20639;SDS011;10479;53.524;9.846;2023-04-15T05:17:22;58.05;;;21.63;;
20639;SDS011;10479;53.524;9.846;2023-04-15T05:19:48;51.65;;;20.10;;
20639;SDS011;10479;53.524;9.846;2023-04-15T05:22:13;54.45;;;20.45;;
20639;SDS011;10479;53.524;9.846;2023-04-15T05:24:38;52.95;;;20.08;;
20639;SDS011;10479;53.524;9.846;2023-04-15T05:27:04;59.22;;;21.65;;
20639;SDS011;10479;53.524;9.846;2023-04-15T05:29:30;60.10;;;21.83;;
20639;SDS011;10479;53.524;9.846;2023-04-15T05:31:56;85.82;;;30.30;;
20639;SDS011;10479;53.524;9.846;2023-04-15T05:34:21;63.90;;;23.52;;
20639;SDS011;10479;53.524;9.846;2023-04-15T05:36:47;72.07;;;24.73;;
20639;SDS011;10479;53.524;9.846;2023-04-15T05:39:12;66.25;;;23.15;;
20639;SDS011;10479;53.524;9.846;2023-04-15T05:41:38;73.82;;;25.65;;
20639;SDS011;10479;53.524;9.846;2023-04-15T05:44:03;65.35;;;22.95;;
20639;SDS011;10479;53.524;9.846;2023-04-15T05:46:29;62.33;;;22.30;;
20639;SDS011;10479;53.524;9.846;2023-04-15T05:48:54;67.60;;;22.88;;
20639;SDS011;10479;53.524;9.846;2023-04-15T05:51:19;66.18;;;23.77;;
20639;SDS011;10479;53.524;9.846;2023-04-15T05:53:45;82.82;;;25.83;;
20639;SDS011;10479;53.524;9.846;2023-04-15T05:56:11;67.95;;;23.83;;
20639;SDS011;10479;53.524;9.846;2023-04-15T05:58:36;84.25;;;29.00;;
20639;SDS011;10479;53.524;9.846;2023-04-15T06:01:02;72.28;;;25.80;;
20639;SDS011;10479;53.524;9.846;2023-04-15T06:03:28;82.60;;;28.77;;
20639;SDS011;10479;53.524;9.846;2023-04-15T06:05:53;73.72;;;27.00;;
20639;SDS011;10479;53.524;9.846;2023-04-15T06:08:19;84.47;;;28.00;;
20639;SDS011;10479;53.524;9.846;2023-04-15T06:10:45;73.72;;;26.27;;
20639;SDS011;10479;53.524;9.846;2023-04-15T06:13:11;83.72;;;29.05;;
20639;SDS011;10479;53.524;9.846;2023-04-15T06:15:37;71.20;;;26.08;;
20639;SDS011;10479;53.524;9.846;2023-04-15T06:18:02;67.30;;;26.17;;
20639;SDS011;10479;53.524;9.846;2023-04-15T06:20:27;93.40;;;31.27;;
20639;SDS011;10479;53.524;9.846;2023-04-15T06:22:53;123.85;;;34.70;;
20639;SDS011;10479;53.524;9.846;2023-04-15T06:25:18;88.43;;;29.58;;
20639;SDS011;10479;53.524;9.846;2023-04-15T06:27:44;81.55;;;28.80;;
20639;SDS011;10479;53.524;9.846;2023-04-15T06:30:10;109.20;;;34.50;;
20639;SDS011;10479;53.524;9.846;2023-04-15T06:32:36;100.93;;;30.80;;
20639;SDS011;10479;53.524;9.846;2023-04-15T06:35:01;117.80;;;34.97;;
20639;SDS011;10479;53.524;9.846;2023-04-15T06:37:28;94.13;;;32.13;;
20639;SDS011;10479;53.524;9.846;2023-04-15T06:39:55;96.60;;;31.98;;
20639;SDS011;10479;53.524;9.846;2023-04-15T06:42:20;116.13;;;35.45;;
20639;SDS011;10479;53.524;9.846;2023-04-15T06:44:45;99.30;;;33.30;;
20639;SDS011;10479;53.524;9.846;2023-04-15T06:47:11;112.45;;;36.00;;
20639;SDS011;10479;53.524;9.846;2023-04-15T06:49:39;85.80;;;30.88;;
20639;SDS011;10479;53.524;9.846;2023-04-15T06:52:04;96.53;;;32.38;;
20639;SDS011;10479;53.524;9.846;2023-04-15T06:54:30;94.30;;;33.70;;
20639;SDS011;10479;53.524;9.846;2023-04-15T06:56:56;96.95;;;33.75;;
20639;SDS011;10479;53.524;9.846;2023-04-15T06:59:21;145.35;;;43.17;;
20639;SDS011;10479;53.524;9.846;2023-04-15T07:01:46;119.95;;;39.72;;
20639;SDS011;10479;53.524;9.846;2023-04-15T07:04:12;112.93;;;39.25;;
20639;SDS011;10479;53.524;9.846;2023-04-15T07:06:37;117.15;;;38.30;;
20639;SDS011;10479;53.524;9.846;2023-04-15T07:09:03;125.28;;;40.55;;
20639;SDS011;10479;53.524;9.846;2023-04-15T07:11:29;113.80;;;37.80;;
20639;SDS011;10479;53.524;9.846;2023-04-15T07:13:54;102.65;;;36.40;;
20639;SDS011;10479;53.524;9.846;2023-04-15T07:16:20;117.78;;;42.10;;
20639;SDS011;10479;53.524;9.846;2023-04-15T07:18:46;126.95;;;44.45;;
20639;SDS011;10479;53.524;9.846;2023-04-15T07:21:11;124.45;;;44.72;;
20639;SDS011;10479;53.524;9.846;2023-04-15T07:23:37;123.15;;;41.38;;
20639;SDS011;10479;53.524;9.846;2023-04-15T07:26:03;127.85;;;40.15;;
20639;SDS011;10479;53.524;9.846;2023-04-15T07:28:28;100.47;;;37.58;;
20639;SDS011;10479;53.524;9.846;2023-04-15T07:30:54;115.88;;;39.53;;
20639;SDS011;10479;53.524;9.846;2023-04-15T07:33:21;144.93;;;46.00;;
20639;SDS011;10479;53.524;9.846;2023-04-15T07:35:46;107.25;;;37.38;;
20639;SDS011;10479;53.524;9.846;2023-04-15T07:38:12;100.53;;;37.50;;
20639;SDS011;10479;53.524;9.846;2023-04-15T07:40:37;116.93;;;42.38;;
20639;SDS011;10479;53.524;9.846;2023-04-15T07:43:03;92.78;;;36.13;;
20639;SDS011;10479;53.524;9.846;2023-04-15T07:45:29;115.88;;;40.17;;
20639;SDS011;10479;53.524;9.846;2023-04-15T07:47:55;107.80;;;39.78;;
20639;SDS011;10479;53.524;9.846;2023-04-15T07:50:21;115.57;;;40.45;;
20639;SDS011;10479;53.524;9.846;2023-04-15T07:52:47;125.05;;;40.30;;
20639;SDS011;10479;53.524;9.846;2023-04-15T07:55:13;113.50;;;41.33;;
20639;SDS011;10479;53.524;9.846;2023-04-15T07:57:41;125.20;;;42.40;;
20639;SDS011;10479;53.524;9.846;2023-04-15T08:00:07;152.20;;;48.22;;
20639;SDS011;10479;53.524;9.846;2023-04-15T08:02:33;150.88;;;47.40;;
20639;SDS011;10479;53.524;9.846;2023-04-15T08:04:59;118.15;;;41.25;;
20639;SDS011;10479;53.524;9.846;2023-04-15T08:07:27;125.88;;;44.97;;
20639;SDS011;10479;53.524;9.846;2023-04-15T08:09:52;145.05;;;50.40;;
20639;SDS011;10479;53.524;9.846;2023-04-15T08:12:18;142.25;;;46.47;;
20639;SDS011;10479;53.524;9.846;2023-04-15T08:14:43;171.07;;;49.72;;
20639;SDS011;10479;53.524;9.846;2023-04-15T08:17:09;123.57;;;42.25;;
20639;SDS011;10479;53.524;9.846;2023-04-15T08:19:34;120.80;;;43.83;;
20639;SDS011;10479;53.524;9.846;2023-04-15T08:22:00;118.28;;;44.13;;
20639;SDS011;10479;53.524;9.846;2023-04-15T08:24:25;148.27;;;52.15;;
20639;SDS011;10479;53.524;9.846;2023-04-15T08:26:52;132.05;;;46.78;;
20639;SDS011;10479;53.524;9.846;2023-04-15T08:29:17;147.85;;;47.08;;
20639;SDS011;10479;53.524;9.846;2023-04-15T08:31:43;135.43;;;47.20;;
20639;SDS011;10479;53.524;9.846;2023-04-15T08:34:10;137.88;;;52.38;;
20639;SDS011;10479;53.524;9.846;2023-04-15T08:36:36;129.15;;;50.78;;
20639;SDS011;10479;53.524;9.846;2023-04-15T08:39:01;115.93;;;42.70;;
20639;SDS011;10479;53.524;9.846;2023-04-15T08:41:30;121.15;;;44.10;;
20639;SDS011;10479;53.524;9.846;2023-04-15T08:44:03;120.65;;;43.35;;
20639;SDS011;10479;53.524;9.846;2023-04-15T08:46:30;111.40;;;42.38;;
20639;SDS011;10479;53.524;9.846;2023-04-15T08:48:58;126.43;;;45.58;;
20639;SDS011;10479;53.524;9.846;2023-04-15T08:51:24;132.45;;;44.72;;
20639;SDS011;10479;53.524;9.846;2023-04-15T08:53:49;117.90;;;43.97;;
20639;SDS011;10479;53.524;9.846;2023-04-15T08:56:17;100.82;;;39.20;;
20639;SDS011;10479;53.524;9.846;2023-04-15T08:58:42;149.82;;;49.05;;
20639;SDS011;10479;53.524;9.846;2023-04-15T09:01:09;142.02;;;50.30;;
20639;SDS011;10479;53.524;9.846;2023-04-15T09:03:36;116.70;;;44.00;;
20639;SDS011;10479;53.524;9.846;2023-04-15T09:06:03;120.75;;;44.97;;
20639;SDS011;10479;53.524;9.846;2023-04-15T09:08:30;119.68;;;44.63;;
20639;SDS011;10479;53.524;9.846;2023-04-15T09:10:55;115.22;;;46.75;;
20639;SDS011;10479;53.524;9.846;2023-04-15T09:13:21;109.18;;;42.05;;
20639;SDS011;10479;53.524;9.846;2023-04-15T09:15:46;104.07;;;41.65;;
20639;SDS011;10479;53.524;9.846;2023-04-15T09:18:13;105.13;;;44.80;;
20639;SDS011;10479;53.524;9.846;2023-04-15T09:20:52;114.45;;;48.45;;
20639;SDS011;10479;53.524;9.846;2023-04-15T09:23:18;102.65;;;40.33;;
20639;SDS011;10479;53.524;9.846;2023-04-15T09:25:43;110.18;;;43.10;;
20639;SDS011;10479;53.524;9.846;2023-04-15T09:28:09;93.65;;;37.55;;
20639;SDS011;10479;53.524;9.846;2023-04-15T09:30:35;88.18;;;38.17;;
20639;SDS011;10479;53.524;9.846;2023-04-15T09:33:01;90.05;;;37.72;;
20639;SDS011;10479;53.524;9.846;2023-04-15T09:35:32;86.40;;;37.00;;
20639;SDS011;10479;53.524;9.846;2023-04-15T09:38:02;86.63;;;37.72;;
20639;SDS011;10479;53.524;9.846;2023-04-15T09:43:04;93.95;;;38.60;;
20639;SDS011;10479;53.524;9.846;2023-04-15T09:45:31;81.28;;;35.40;;
20639;SDS011;10479;53.524;9.846;2023-04-15T09:47:57;80.63;;;36.90;;
20639;SDS011;10479;53.524;9.846;2023-04-15T09:50:26;72.10;;;33.60;;
20639;SDS011;10479;53.524;9.846;2023-04-15T09:52:53;87.10;;;37.45;;
20639;SDS011;10479;53.524;9.846;2023-04-15T09:55:19;81.60;;;36.03;;
20639;SDS011;10479;53.524;9.846;2023-04-15T09:57:45;75.25;;;33.40;;
20639;SDS011;10479;53.524;9.846;2023-04-15T10:00:13;69.47;;;31.98;;
20639;SDS011;10479;53.524;9.846;2023-04-15T10:02:40;77.13;;;34.47;;
20639;SDS011;10479;53.524;9.846;2023-04-15T10:05:06;79.00;;;35.20;;
20639;SDS011;10479;53.524;9.846;2023-04-15T10:07:35;72.15;;;32.47;;
20639;SDS011;10479;53.524;9.846;2023-04-15T10:10:00;76.20;;;35.05;;
20639;SDS011;10479;53.524;9.846;2023-04-15T10:12:27;69.75;;;32.67;;
20639;SDS011;10479;53.524;9.846;2023-04-15T10:14:55;61.58;;;32.25;;
20639;SDS011;10479;53.524;9.846;2023-04-15T10:17:23;66.05;;;32.60;;
20639;SDS011;10479;53.524;9.846;2023-04-15T10:19:53;73.28;;;34.50;;
20639;SDS011;10479;53.524;9.846;2023-04-15T10:22:19;67.13;;;32.85;;
20639;SDS011;10479;53.524;9.846;2023-04-15T10:24:44;69.40;;;35.35;;
20639;SDS011;10479;53.524;9.846;2023-04-15T10:27:11;61.45;;;30.98;;
20639;SDS011;10479;53.524;9.846;2023-04-15T10:29:36;70.80;;;36.78;;
20639;SDS011;10479;53.524;9.846;2023-04-15T10:32:02;67.00;;;32.90;;
20639;SDS011;10479;53.524;9.846;2023-04-15T10:34:27;62.33;;;29.80;;
20639;SDS011;10479;53.524;9.846;2023-04-15T10:36:54;65.88;;;32.30;;
20639;SDS011;10479;53.524;9.846;2023-04-15T10:42:11;54.03;;;27.63;;
20639;SDS011;10479;53.524;9.846;2023-04-15T10:44:42;52.30;;;28.58;;
20639;SDS011;10479;53.524;9.846;2023-04-15T10:47:12;52.75;;;28.63;;
20639;SDS011;10479;53.524;9.846;2023-04-15T10:49:48;57.53;;;29.83;;
20639;SDS011;10479;53.524;9.846;2023-04-15T10:52:21;50.53;;;27.35;;
20639;SDS011;10479;53.524;9.846;2023-04-15T10:54:47;53.30;;;27.30;;
20639;SDS011;10479;53.524;9.846;2023-04-15T10:57:14;52.63;;;27.05;;
20639;SDS011;10479;53.524;9.846;2023-04-15T11:05:18;42.80;;;24.63;;
20639;SDS011;10479;53.524;9.846;2023-04-15T11:12:58;44.70;;;25.73;;
20639;SDS011;10479;53.524;9.846;2023-04-15T11:17:58;47.97;;;24.92;;
20639;SDS011;10479;53.524;9.846;2023-04-15T11:20:24;48.25;;;25.92;;
20639;SDS011;10479;53.524;9.846;2023-04-15T11:22:51;42.75;;;25.33;;
20639;SDS011;10479;53.524;9.846;2023-04-15T11:25:26;42.28;;;22.58;;
20639;SDS011;10479;53.524;9.846;2023-04-15T11:27:59;39.83;;;21.73;;
20639;SDS011;10479;53.524;9.846;2023-04-15T11:30:26;40.08;;;22.40;;
20639;SDS011;10479;53.524;9.846;2023-04-15T11:32:53;40.38;;;22.45;;
20639;SDS011;10479;53.524;9.846;2023-04-15T11:35:20;40.53;;;21.40;;
20639;SDS011;10479;53.524;9.846;2023-04-15T11:37:47;31.55;;;19.73;;
20639;SDS011;10479;53.524;9.846;2023-04-15T11:40:27;31.67;;;18.92;;
20639;SDS011;10479;53.524;9.846;2023-04-15T11:46:15;29.50;;;16.27;;
20639;SDS011;10479;53.524;9.846;2023-04-15T11:48:42;22.08;;;13.00;;
20639;SDS011;10479;53.524;9.846;2023-04-15T11:51:10;25.20;;;13.68;;
20639;SDS011;10479;53.524;9.846;2023-04-15T11:56:06;21.38;;;12.45;;
20639;SDS011;10479;53.524;9.846;2023-04-15T11:58:33;20.65;;;11.93;;
20639;SDS011;10479;53.524;9.846;2023-04-15T12:01:01;17.35;;;10.77;;
20639;SDS011;10479;53.524;9.846;2023-04-15T12:03:30;21.50;;;11.57;;
20639;SDS011;10479;53.524;9.846;2023-04-15T12:06:15;17.65;;;10.23;;
20639;SDS011;10479;53.524;9.846;2023-04-15T12:11:32;19.70;;;10.80;;
20639;SDS011;10479;53.524;9.846;2023-04-15T12:22:02;17.63;;;10.27;;
20639;SDS011;10479;53.524;9.846;2023-04-15T12:24:34;16.77;;;10.02;;
20639;SDS011;10479;53.524;9.846;2023-04-15T12:27:03;16.63;;;10.52;;
20639;SDS011;10479;53.524;9.846;2023-04-15T12:29:30;16.65;;;10.13;;
20639;SDS011;10479;53.524;9.846;2023-04-15T12:31:57;16.27;;;9.82;;
20639;SDS011;10479;53.524;9.846;2023-04-15T12:37:02;16.63;;;10.40;;
20639;SDS011;10479;53.524;9.846;2023-04-15T12:39:29;19.65;;;11.35;;
20639;SDS011;10479;53.524;9.846;2023-04-15T12:41:57;18.08;;;11.55;;
20639;SDS011;10479;53.524;9.846;2023-04-15T12:44:24;17.70;;;10.75;;
20639;SDS011;10479;53.524;9.846;2023-04-15T12:46:50;15.82;;;10.30;;
20639;SDS011;10479;53.524;9.846;2023-04-15T12:49:16;15.98;;;10.27;;
20639;SDS011;10479;53.524;9.846;2023-04-15T12:51:45;15.75;;;9.55;;
20639;SDS011;10479;53.524;9.846;2023-04-15T12:54:11;15.30;;;9.35;;
20639;SDS011;10479;53.524;9.846;2023-04-15T12:56:37;13.40;;;8.98;;
20639;SDS011;10479;53.524;9.846;2023-04-15T12:59:02;16.77;;;9.43;;
20639;SDS011;10479;53.524;9.846;2023-04-15T13:01:28;18.13;;;9.95;;
20639;SDS011;10479;53.524;9.846;2023-04-15T13:03:53;14.23;;;9.07;;
20639;SDS011;10479;53.524;9.846;2023-04-15T13:06:18;14.57;;;9.15;;
20639;SDS011;10479;53.524;9.846;2023-04-15T13:08:44;17.38;;;9.35;;
20639;SDS011;10479;53.524;9.846;2023-04-15T13:11:10;17.15;;;10.88;;
20639;SDS011;10479;53.524;9.846;2023-04-15T13:13:35;19.88;;;10.40;;
20639;SDS011;10479;53.524;9.846;2023-04-15T13:16:01;16.38;;;9.70;;
20639;SDS011;10479;53.524;9.846;2023-04-15T13:18:26;16.65;;;9.88;;
20639;SDS011;10479;53.524;9.846;2023-04-15T13:20:52;17.52;;;10.00;;
20639;SDS011;10479;53.524;9.846;2023-04-15T13:23:18;15.70;;;9.18;;
20639;SDS011;10479;53.524;9.846;2023-04-15T13:25:43;15.90;;;9.63;;
20639;SDS011;10479;53.524;9.846;2023-04-15T13:28:10;15.38;;;9.85;;
20639;SDS011;10479;53.524;9.846;2023-04-15T13:30:36;16.00;;;10.25;;
20639;SDS011;10479;53.524;9.846;2023-04-15T13:33:02;16.42;;;9.32;;
20639;SDS011;10479;53.524;9.846;2023-04-15T13:35:28;14.55;;;9.27;;
20639;SDS011;10479;53.524;9.846;2023-04-15T13:37:53;15.98;;;9.38;;
20639;SDS011;10479;53.524;9.846;2023-04-15T13:40:20;17.23;;;10.05;;
20639;SDS011;10479;53.524;9.846;2023-04-15T13:42:45;16.65;;;9.32;;
20639;SDS011;10479;53.524;9.846;2023-04-15T13:45:11;15.45;;;9.50;;
20639;SDS011;10479;53.524;9.846;2023-04-15T13:47:36;12.82;;;8.80;;
20639;SDS011;10479;53.524;9.846;2023-04-15T13:50:02;13.52;;;8.65;;
20639;SDS011;10479;53.524;9.846;2023-04-15T13:52:27;14.45;;;8.57;;
20639;SDS011;10479;53.524;9.846;2023-04-15T13:54:53;15.25;;;8.85;;
20639;SDS011;10479;53.524;9.846;2023-04-15T13:57:18;15.95;;;9.32;;
20639;SDS011;10479;53.524;9.846;2023-04-15T13:59:44;14.23;;;9.20;;
20639;SDS011;10479;53.524;9.846;2023-04-15T14:02:09;16.13;;;9.15;;
20639;SDS011;10479;53.524;9.846;2023-04-15T14:04:35;14.45;;;9.20;;
20639;SDS011;10479;53.524;9.846;2023-04-15T14:07:00;14.93;;;8.70;;
20639;SDS011;10479;53.524;9.846;2023-04-15T14:09:26;15.38;;;9.73;;
20639;SDS011;10479;53.524;9.846;2023-04-15T14:11:51;15.13;;;9.27;;
20639;SDS011;10479;53.524;9.846;2023-04-15T14:14:18;16.95;;;10.13;;
20639;SDS011;10479;53.524;9.846;2023-04-15T14:16:43;18.85;;;9.50;;
20639;SDS011;10479;53.524;9.846;2023-04-15T14:19:09;12.30;;;8.13;;
20639;SDS011;10479;53.524;9.846;2023-04-15T14:21:34;15.25;;;8.18;;
20639;SDS011;10479;53.524;9.846;2023-04-15T14:24:00;13.48;;;7.82;;
20639;SDS011;10479;53.524;9.846;2023-04-15T14:26:25;12.27;;;8.02;;
20639;SDS011;10479;53.524;9.846;2023-04-15T14:28:51;14.82;;;8.27;;
20639;SDS011;10479;53.524;9.846;2023-04-15T14:31:17;20.48;;;9.63;;
20639;SDS011;10479;53.524;9.846;2023-04-15T14:33:43;13.57;;;8.27;;
20639;SDS011;10479;53.524;9.846;2023-04-15T14:36:08;19.08;;;8.02;;
20639;SDS011;10479;53.524;9.846;2023-04-15T14:38:34;12.73;;;8.23;;
20639;SDS011;10479;53.524;9.846;2023-04-15T14:41:04;14.75;;;8.77;;
20639;SDS011;10479;53.524;9.846;2023-04-15T14:43:30;12.30;;;7.80;;
20639;SDS011;10479;53.524;9.846;2023-04-15T14:45:55;13.75;;;8.07;;
20639;SDS011;10479;53.524;9.846;2023-04-15T14:48:21;13.05;;;7.40;;
20639;SDS011;10479;53.524;9.846;2023-04-15T14:50:46;11.45;;;7.40;;
20639;SDS011;10479;53.524;9.846;2023-04-15T14:53:11;14.30;;;8.68;;
20639;SDS011;10479;53.524;9.846;2023-04-15T14:55:37;13.52;;;8.32;;